Time;durP1;ratioP1;P1;durP2;ratioP2;P2;SDS_P1;SDS_P2;PMS_P1;PMS_P2;Temp;Humidity;BMP_temperature;BMP_pressure;BME280_temperature;BME280_humidity;BME280_pressure;Samples;Min_cycle;Max_cycle;Signal;HPM_P1;HPM_P2
2024/01/15 00:02:08;;;;;;;15.45;8.77;;;2.50;99.90;;;;;;5009002;28;20037;-68
2024/01/15 00:04:40;;;;;;;12.55;7.63;;;2.50;99.90;;;;;;5019841;28;20052;-69
2024/01/15 00:07:06;;;;;;;17.75;9.15;;;2.50;99.90;;;;;;5017358;28;20036;-68
2024/01/15 00:09:31;;;;;;;13.27;8.40;;;2.50;99.90;;;;;;5015400;28;20057;-67
2024/01/15 00:11:57;;;;;;;15.75;8.27;;;2.50;99.90;;;;;;5007578;28;20105;-68
2024/01/15 00:14:23;;;;;;;12.88;8.35;;;2.50;99.90;;;;;;5016613;28;20029;-68
2024/01/15 00:16:51;;;;;;;14.20;8.15;;;2.50;99.90;;;;;;5014272;28;20037;-68
2024/01/15 00:19:16;;;;;;;15.35;8.82;;;2.40;99.90;;;;;;5010411;28;20032;-68
2024/01/15 00:21:42;;;;;;;13.93;8.63;;;2.40;99.90;;;;;;5013400;28;20516;-68
2024/01/15 00:24:08;;;;;;;13.32;8.57;;;2.40;99.90;;;;;;5007983;28;20037;-68
2024/01/15 00:26:33;;;;;;;13.55;8.20;;;2.40;99.90;;;;;;5012391;28;20109;-68
2024/01/15 00:28:59;;;;;;;14.73;7.75;;;2.40;99.90;;;;;;5015640;28;20083;-68
2024/01/15 00:31:24;;;;;;;14.73;8.13;;;2.40;99.90;;;;;;5019563;28;20430;-68
2024/01/15 00:33:50;;;;;;;14.45;8.40;;;2.40;99.90;;;;;;5012928;28;20397;-68
2024/01/15 00:36:16;;;;;;;14.73;8.07;;;2.30;99.90;;;;;;5013439;28;20091;-69
2024/01/15 00:38:42;;;;;;;11.98;7.45;;;2.30;99.90;;;;;;5015338;28;20032;-68
2024/01/15 00:41:07;;;;;;;14.65;8.13;;;2.30;99.90;;;;;;5017859;28;20037;-67
2024/01/15 00:43:33;;;;;;;13.43;8.07;;;2.30;99.90;;;;;;5013072;28;20484;-68
2024/01/15 00:46:02;;;;;;;21.20;9.70;;;2.30;99.90;;;;;;5014896;28;20064;-69
2024/01/15 00:48:27;;;;;;;12.38;7.78;;;2.30;99.90;;;;;;5007626;28;20034;-68
2024/01/15 00:50:54;;;;;;;13.35;8.52;;;2.20;99.90;;;;;;5013334;28;20722;-69
2024/01/15 00:53:21;;;;;;;15.85;8.85;;;2.20;99.90;;;;;;5012594;28;20053;-69
2024/01/15 00:55:47;;;;;;;15.93;9.20;;;2.20;99.90;;;;;;5014991;28;20100;-68
2024/01/15 00:58:13;;;;;;;14.13;7.95;;;2.20;99.90;;;;;;5016846;28;20161;-68
2024/01/15 01:00:38;;;;;;;15.13;8.48;;;2.20;99.90;;;;;;5016327;28;20037;-68
2024/01/15 01:03:04;;;;;;;19.63;9.77;;;2.20;99.90;;;;;;5003777;28;20088;-68
2024/01/15 01:05:30;;;;;;;20.27;9.57;;;2.20;99.90;;;;;;5009586;28;20041;-68
2024/01/15 01:07:55;;;;;;;16.05;8.82;;;2.20;99.90;;;;;;5013301;28;20578;-68
2024/01/15 01:10:20;;;;;;;14.05;8.63;;;2.20;99.90;;;;;;5016367;28;20040;-68
2024/01/15 01:12:46;;;;;;;16.67;9.38;;;2.20;99.90;;;;;;5017455;28;20025;-67
2024/01/15 01:15:11;;;;;;;15.70;9.30;;;2.20;99.90;;;;;;5015063;28;20025;-70
2024/01/15 01:17:37;;;;;;;15.55;7.60;;;2.20;99.90;;;;;;5013191;28;20108;-68
2024/01/15 01:20:06;;;;;;;13.43;7.97;;;2.20;99.90;;;;;;5012895;28;20813;-69
2024/01/15 01:22:31;;;;;;;15.25;8.15;;;2.20;99.90;;;;;;5010827;28;20729;-69
2024/01/15 01:24:57;;;;;;;19.30;10.00;;;2.10;99.90;;;;;;5007739;28;20013;-68
2024/01/15 01:27:22;;;;;;;18.25;8.45;;;2.10;99.90;;;;;;5006258;28;20036;-67
2024/01/15 01:29:47;;;;;;;14.55;9.07;;;2.10;99.90;;;;;;5014779;28;20033;-68
2024/01/15 01:32:13;;;;;;;16.17;8.18;;;2.10;99.90;;;;;;5009174;28;20506;-68
2024/01/15 01:34:44;;;;;;;14.43;8.93;;;2.10;99.90;;;;;;5006753;28;20847;-68
2024/01/15 01:37:14;;;;;;;17.83;8.95;;;2.10;99.90;;;;;;5004404;28;20655;-68
2024/01/15 01:39:40;;;;;;;15.48;8.63;;;2.00;99.90;;;;;;5012243;28;20034;-68
2024/01/15 01:42:06;;;;;;;16.95;8.93;;;2.00;99.90;;;;;;5017011;28;20029;-68
2024/01/15 01:44:31;;;;;;;17.00;8.45;;;1.90;99.90;;;;;;5017805;28;20031;-67
2024/01/15 01:46:59;;;;;;;15.68;8.45;;;1.90;99.90;;;;;;5008940;28;20675;-68
2024/01/15 01:49:25;;;;;;;17.25;9.27;;;1.90;99.90;;;;;;5015739;28;20112;-65
2024/01/15 01:51:51;;;;;;;18.52;9.77;;;1.90;99.90;;;;;;5012379;28;20045;-66
2024/01/15 01:54:18;;;;;;;19.80;9.73;;;1.90;99.90;;;;;;5009815;28;20556;-66
2024/01/15 01:56:45;;;;;;;14.48;7.50;;;1.90;99.90;;;;;;5014957;28;20943;-65
2024/01/15 01:59:11;;;;;;;16.17;8.57;;;1.90;99.90;;;;;;5015790;28;20092;-65
2024/01/15 02:01:37;;;;;;;12.02;7.38;;;1.90;99.90;;;;;;5013341;28;20033;-65
2024/01/15 02:04:04;;;;;;;14.30;8.50;;;1.90;99.90;;;;;;5011699;28;20029;-65
2024/01/15 02:06:29;;;;;;;16.05;8.73;;;1.90;99.90;;;;;;5013597;28;20053;-65
2024/01/15 02:08:55;;;;;;;14.35;7.20;;;1.90;99.90;;;;;;5014372;28;20068;-65
2024/01/15 02:11:21;;;;;;;14.38;8.38;;;1.90;99.90;;;;;;5015400;28;20032;-65
2024/01/15 02:13:46;;;;;;;15.45;7.65;;;1.90;99.90;;;;;;5015875;28;20105;-65
2024/01/15 02:16:12;;;;;;;14.10;8.05;;;1.90;99.90;;;;;;5014540;28;20703;-65
2024/01/15 02:18:44;;;;;;;14.52;7.55;;;2.00;99.90;;;;;;5017181;28;20029;-65
2024/01/15 02:21:10;;;;;;;15.27;7.88;;;1.90;99.90;;;;;;5019588;28;20390;-65
2024/01/15 02:23:37;;;;;;;16.35;8.32;;;1.90;99.90;;;;;;5019328;28;20547;-65
2024/01/15 02:26:04;;;;;;;12.50;7.18;;;1.90;99.90;;;;;;5021645;28;20041;-65
2024/01/15 02:28:29;;;;;;;10.55;6.75;;;1.90;99.90;;;;;;5018703;28;20524;-65
2024/01/15 02:30:55;;;;;;;12.68;6.65;;;1.80;99.90;;;;;;5019606;28;20049;-65
2024/01/15 02:33:21;;;;;;;13.77;6.97;;;1.80;99.90;;;;;;5019564;28;20036;-65
2024/01/15 02:35:49;;;;;;;11.50;6.80;;;1.80;99.90;;;;;;5019250;28;20029;-65
2024/01/15 02:38:15;;;;;;;12.32;6.95;;;1.80;99.90;;;;;;5019462;28;20477;-65
2024/01/15 02:40:41;;;;;;;12.20;6.45;;;1.80;99.90;;;;;;5019244;28;20079;-65
2024/01/15 02:43:06;;;;;;;14.07;7.03;;;1.80;99.90;;;;;;5020644;28;20041;-65
2024/01/15 02:45:32;;;;;;;14.02;7.78;;;1.80;99.90;;;;;;5019335;28;20296;-65
2024/01/15 02:47:57;;;;;;;16.60;8.35;;;1.80;99.90;;;;;;5014764;28;20029;-65
2024/01/15 02:50:23;;;;;;;15.68;7.80;;;1.80;99.90;;;;;;5017709;28;20041;-65
2024/01/15 02:52:48;;;;;;;18.88;8.20;;;1.80;99.90;;;;;;5019607;28;20029;-65
2024/01/15 02:55:14;;;;;;;17.08;7.38;;;1.80;99.90;;;;;;5019090;28;20029;-65
2024/01/15 02:57:39;;;;;;;13.90;8.00;;;1.80;99.90;;;;;;5015733;28;20036;-65
2024/01/15 03:00:07;;;;;;;11.23;6.88;;;1.80;99.90;;;;;;5016951;28;20079;-65
2024/01/15 03:02:32;;;;;;;11.88;6.45;;;1.80;99.90;;;;;;5016051;28;20112;-65
2024/01/15 03:04:58;;;;;;;13.77;6.13;;;1.80;99.90;;;;;;5016956;28;20104;-65
2024/01/15 03:07:23;;;;;;;13.25;6.55;;;1.70;99.90;;;;;;5017472;28;20060;-65
2024/01/15 03:09:49;;;;;;;12.02;6.47;;;1.70;99.90;;;;;;5019178;28;20500;-65
2024/01/15 03:12:15;;;;;;;16.20;6.20;;;1.70;99.90;;;;;;5019367;28;20024;-65
2024/01/15 03:14:41;;;;;;;15.75;6.38;;;1.70;99.90;;;;;;5020701;28;20108;-65
2024/01/15 03:17:09;;;;;;;14.27;6.43;;;1.80;99.90;;;;;;5015144;28;20018;-65
2024/01/15 03:19:35;;;;;;;15.18;7.25;;;1.80;99.90;;;;;;5019199;28;20025;-65
2024/01/15 03:22:02;;;;;;;15.65;7.22;;;1.80;99.90;;;;;;5020769;28;20026;-65
2024/01/15 03:24:28;;;;;;;17.60;7.80;;;1.80;99.90;;;;;;5022919;28;20219;-65
2024/01/15 03:26:53;;;;;;;10.52;6.60;;;1.80;99.90;;;;;;5021840;28;20033;-65
2024/01/15 03:29:19;;;;;;;15.68;7.32;;;1.90;99.90;;;;;;5022987;28;20079;-65
2024/01/15 03:31:44;;;;;;;12.48;6.50;;;1.90;99.90;;;;;;5023683;28;20029;-65
2024/01/15 03:34:10;;;;;;;11.90;6.22;;;1.90;99.90;;;;;;5017675;28;20042;-65
2024/01/15 03:36:35;;;;;;;12.40;6.38;;;1.90;99.90;;;;;;5015830;28;20137;-65
2024/01/15 03:39:01;;;;;;;13.57;6.07;;;1.90;99.90;;;;;;5021446;28;20021;-65
2024/01/15 03:41:26;;;;;;;14.07;7.07;;;1.90;99.90;;;;;;5022434;28;20029;-65
2024/01/15 03:43:52;;;;;;;13.50;6.53;;;1.90;99.90;;;;;;5021414;28;20025;-65
2024/01/15 03:46:17;;;;;;;22.77;7.63;;;1.90;99.90;;;;;;5020587;28;20474;-65
2024/01/15 03:48:42;;;;;;;13.63;6.00;;;1.90;99.90;;;;;;5016718;28;20022;-65
2024/01/15 03:51:08;;;;;;;13.25;6.97;;;1.90;99.90;;;;;;5022527;28;20029;-65
2024/01/15 03:53:33;;;;;;;15.20;6.13;;;1.90;99.90;;;;;;5020844;28;20373;-65
2024/01/15 03:55:59;;;;;;;12.30;6.50;;;1.90;99.90;;;;;;5022163;28;20076;-65
2024/01/15 03:58:24;;;;;;;12.30;6.10;;;1.90;99.90;;;;;;5023773;28;20517;-65
2024/01/15 04:00:50;;;;;;;13.23;5.80;;;1.90;99.90;;;;;;5023852;28;20088;-65
2024/01/15 04:03:15;;;;;;;11.25;6.15;;;1.90;99.90;;;;;;5018415;28;20124;-65
2024/01/15 04:05:41;;;;;;;14.88;7.40;;;1.90;99.90;;;;;;5021892;28;20405;-65
2024/01/15 04:08:06;;;;;;;12.45;5.90;;;1.90;99.90;;;;;;5020610;28;20104;-65
2024/01/15 04:10:32;;;;;;;16.35;6.85;;;2.00;99.90;;;;;;5020803;28;20025;-65
2024/01/15 04:12:59;;;;;;;12.05;6.05;;;1.90;99.90;;;;;;5022493;28;20248;-65
2024/01/15 04:15:25;;;;;;;16.25;5.78;;;1.90;99.90;;;;;;5022315;28;20036;-65
2024/01/15 04:17:50;;;;;;;14.50;6.93;;;1.90;99.90;;;;;;5021863;28;20033;-65
2024/01/15 04:20:16;;;;;;;10.05;5.80;;;2.00;99.90;;;;;;5020512;28;20026;-65
2024/01/15 04:22:41;;;;;;;11.93;5.78;;;2.00;99.90;;;;;;5021850;28;20108;-65
2024/01/15 04:25:07;;;;;;;12.30;5.38;;;1.90;99.90;;;;;;5021627;28;20028;-65
2024/01/15 04:27:32;;;;;;;8.82;5.50;;;2.00;99.90;;;;;;5021700;28;20582;-65
2024/01/15 04:29:58;;;;;;;13.00;5.35;;;2.00;99.90;;;;;;5023419;28;20036;-65
2024/01/15 04:32:23;;;;;;;13.52;5.50;;;2.00;99.90;;;;;;5012764;28;20034;-65
2024/01/15 04:34:49;;;;;;;16.90;5.70;;;2.00;99.90;;;;;;5012849;28;20498;-65
2024/01/15 04:37:14;;;;;;;13.30;5.20;;;2.10;99.90;;;;;;5018036;28;20030;-65
2024/01/15 04:39:40;;;;;;;11.63;5.03;;;2.10;99.90;;;;;;5021586;28;20064;-65
2024/01/15 04:42:05;;;;;;;10.38;4.25;;;2.10;99.90;;;;;;5021592;28;20029;-65
2024/01/15 04:44:31;;;;;;;11.90;5.18;;;2.10;99.90;;;;;;5015462;28;20105;-65
2024/01/15 04:46:56;;;;;;;9.90;4.55;;;2.10;99.90;;;;;;5016999;28;20025;-65
2024/01/15 04:49:22;;;;;;;9.07;4.38;;;2.10;99.90;;;;;;5012571;28;20022;-65
2024/01/15 04:51:47;;;;;;;9.13;4.05;;;2.20;99.90;;;;;;5013167;28;20300;-65
2024/01/15 04:54:17;;;;;;;11.68;4.07;;;2.10;99.90;;;;;;5017128;28;20065;-65
2024/01/15 04:56:43;;;;;;;12.25;5.20;;;2.20;99.90;;;;;;5014357;28;20017;-64
2024/01/15 04:59:08;;;;;;;10.13;3.70;;;2.10;99.90;;;;;;5014794;28;20534;-65
2024/01/15 05:01:34;;;;;;;11.57;4.15;;;2.20;99.90;;;;;;5014343;28;20032;-64
2024/01/15 05:03:59;;;;;;;12.00;4.65;;;2.20;99.90;;;;;;5020952;28;20131;-65
2024/01/15 05:06:25;;;;;;;13.20;4.25;;;2.20;99.90;;;;;;5015106;28;20026;-65
2024/01/15 05:08:50;;;;;;;9.95;3.83;;;2.20;99.90;;;;;;5013097;28;20029;-65
2024/01/15 05:11:16;;;;;;;7.60;3.95;;;2.20;99.90;;;;;;5016527;28;20026;-65
2024/01/15 05:13:41;;;;;;;11.85;4.70;;;2.20;99.90;;;;;;5015169;28;20068;-65
2024/01/15 05:16:07;;;;;;;13.18;3.92;;;2.20;99.90;;;;;;5013852;28;20053;-67
2024/01/15 05:18:32;;;;;;;8.63;3.40;;;2.20;99.90;;;;;;5015619;28;20401;-64
2024/01/15 05:20:58;;;;;;;9.88;3.55;;;2.20;99.90;;;;;;5012885;28;20033;-65
2024/01/15 05:23:23;;;;;;;9.70;3.92;;;2.30;99.90;;;;;;5020729;28;20054;-65
2024/01/15 05:25:49;;;;;;;11.68;3.53;;;2.30;99.90;;;;;;5014250;28;20045;-65
2024/01/15 05:28:15;;;;;;;8.15;3.47;;;2.30;99.90;;;;;;5016685;28;20509;-65
2024/01/15 05:30:40;;;;;;;7.40;3.47;;;2.30;99.90;;;;;;5011258;28;20049;-65
2024/01/15 05:33:07;;;;;;;6.07;3.03;;;2.30;99.90;;;;;;5018771;28;20121;-65
2024/01/15 05:35:33;;;;;;;9.20;3.70;;;2.30;99.90;;;;;;5015153;28;20036;-65
2024/01/15 05:37:58;;;;;;;9.88;3.78;;;2.30;99.90;;;;;;5012482;28;20117;-64
2024/01/15 05:40:24;;;;;;;7.90;2.78;;;2.30;99.90;;;;;;5014633;28;20029;-64
2024/01/15 05:42:49;;;;;;;9.15;3.53;;;2.30;99.90;;;;;;5014339;28;20600;-64
2024/01/15 05:45:15;;;;;;;7.13;3.25;;;2.30;99.90;;;;;;5020154;28;20048;-64
2024/01/15 05:47:40;;;;;;;9.57;2.60;;;2.40;99.90;;;;;;5020156;28;21992;-64
2024/01/15 05:50:06;;;;;;;8.48;3.22;;;2.30;99.90;;;;;;5020344;28;20033;-64
2024/01/15 05:52:32;;;;;;;12.68;3.13;;;2.20;99.90;;;;;;5012587;28;20037;-64
2024/01/15 05:54:57;;;;;;;9.45;3.83;;;2.20;99.90;;;;;;5015101;28;20018;-64
2024/01/15 05:57:23;;;;;;;7.22;2.60;;;2.20;99.90;;;;;;5013308;28;20410;-64
2024/01/15 05:59:49;;;;;;;10.80;3.38;;;2.20;99.90;;;;;;5014132;28;20049;-64
2024/01/15 06:02:14;;;;;;;7.45;2.60;;;2.10;99.90;;;;;;5005973;28;20025;-65
2024/01/15 06:04:40;;;;;;;4.50;2.50;;;2.10;99.90;;;;;;5016432;28;20032;-65
2024/01/15 06:07:05;;;;;;;10.02;3.55;;;2.10;99.90;;;;;;5013951;28;20024;-65
2024/01/15 06:09:31;;;;;;;10.90;2.78;;;2.20;99.90;;;;;;5011484;28;20026;-65
2024/01/15 06:11:57;;;;;;;6.15;2.72;;;2.20;99.90;;;;;;5015132;28;20532;-64
2024/01/15 06:14:22;;;;;;;5.68;2.85;;;2.20;99.90;;;;;;5013261;28;20132;-64
2024/01/15 06:16:49;;;;;;;8.20;2.78;;;2.20;99.90;;;;;;5012128;28;20341;-64
2024/01/15 06:19:14;;;;;;;5.53;2.22;;;2.20;99.90;;;;;;5014781;28;20025;-64
2024/01/15 06:21:40;;;;;;;9.88;2.83;;;2.20;99.90;;;;;;5015294;28;20105;-64
2024/01/15 06:24:05;;;;;;;8.20;3.47;;;2.20;99.90;;;;;;5019629;28;20341;-64
2024/01/15 06:26:31;;;;;;;4.63;2.03;;;2.10;99.90;;;;;;5018030;28;20029;-64
2024/01/15 06:28:56;;;;;;;8.40;2.65;;;2.10;99.90;;;;;;5021192;28;20512;-64
2024/01/15 06:31:22;;;;;;;9.18;2.47;;;2.10;99.90;;;;;;5018084;28;20108;-64
2024/01/15 06:33:48;;;;;;;7.55;2.15;;;2.10;99.90;;;;;;5019481;28;20114;-64
2024/01/15 06:36:16;;;;;;;7.38;2.85;;;2.10;99.90;;;;;;5018075;28;20030;-65
2024/01/15 06:38:42;;;;;;;10.90;3.83;;;2.10;99.90;;;;;;5018129;28;20561;-64
2024/01/15 06:41:08;;;;;;;10.70;2.45;;;2.10;99.90;;;;;;5019092;28;20505;-64
2024/01/15 06:43:34;;;;;;;11.80;2.58;;;2.10;99.90;;;;;;5020996;28;20021;-64
2024/01/15 06:45:59;;;;;;;11.60;2.15;;;2.20;99.90;;;;;;5017916;28;20529;-64
2024/01/15 06:48:25;;;;;;;5.72;2.10;;;2.20;99.90;;;;;;5010915;28;20544;-65
2024/01/15 06:50:50;;;;;;;5.45;2.08;;;2.20;99.90;;;;;;5013146;28;20079;-64
2024/01/15 06:53:16;;;;;;;5.88;1.95;;;2.20;99.90;;;;;;5013116;28;20018;-64
2024/01/15 06:55:41;;;;;;;5.53;1.95;;;2.20;99.90;;;;;;5010876;28;20033;-64
2024/01/15 06:58:07;;;;;;;6.53;1.70;;;2.20;99.90;;;;;;5020993;28;20045;-64
2024/01/15 07:00:33;;;;;;;6.95;1.98;;;2.30;99.90;;;;;;5021538;28;20382;-64
2024/01/15 07:02:58;;;;;;;10.10;2.53;;;2.30;99.90;;;;;;5017806;28;20057;-64
2024/01/15 07:05:24;;;;;;;9.82;1.88;;;2.30;99.90;;;;;;5017899;28;20446;-64
2024/01/15 07:07:50;;;;;;;12.23;2.38;;;2.30;99.90;;;;;;5020648;28;20069;-64
2024/01/15 07:10:17;;;;;;;11.93;1.95;;;2.30;99.90;;;;;;5017374;28;20017;-65
2024/01/15 07:12:43;;;;;;;7.82;1.88;;;2.30;99.90;;;;;;5018936;28;20489;-64
2024/01/15 07:15:09;;;;;;;8.95;2.67;;;2.30;99.90;;;;;;5022877;28;20082;-64
2024/01/15 07:17:35;;;;;;;7.05;2.20;;;2.20;99.90;;;;;;5020573;28;20104;-64
2024/01/15 07:20:01;;;;;;;7.20;1.75;;;2.20;99.90;;;;;;5014966;28;20177;-64
2024/01/15 07:22:26;;;;;;;9.00;2.22;;;2.20;99.90;;;;;;5017189;28;20495;-64
2024/01/15 07:24:52;;;;;;;11.32;2.08;;;2.30;99.90;;;;;;5016190;28;20021;-65
2024/01/15 07:27:18;;;;;;;4.63;1.83;;;2.20;99.90;;;;;;5013491;28;20109;-65
2024/01/15 07:29:43;;;;;;;9.27;2.03;;;2.20;99.90;;;;;;5019903;28;20091;-65
2024/01/15 07:32:10;;;;;;;13.15;2.10;;;2.30;99.90;;;;;;5018288;28;20036;-65
2024/01/15 07:34:35;;;;;;;4.45;1.92;;;2.20;99.90;;;;;;5018551;28;20426;-65
2024/01/15 07:37:01;;;;;;;13.77;2.97;;;2.20;99.90;;;;;;5016329;28;20029;-64
2024/01/15 07:39:28;;;;;;;8.65;1.60;;;2.20;99.90;;;;;;5015401;28;20021;-64
2024/01/15 07:41:54;;;;;;;5.80;1.55;;;2.10;99.90;;;;;;5014272;28;20022;-64
2024/01/15 07:44:20;;;;;;;6.03;1.70;;;2.00;99.90;;;;;;5018296;28;20027;-64
2024/01/15 07:46:46;;;;;;;7.38;1.67;;;2.00;99.90;;;;;;5017147;28;20025;-65
2024/01/15 07:49:12;;;;;;;9.80;2.28;;;2.00;99.90;;;;;;5018376;28;20078;-65
2024/01/15 07:51:37;;;;;;;5.82;2.08;;;2.00;99.90;;;;;;5015484;28;20038;-63
2024/01/15 07:54:03;;;;;;;10.52;2.22;;;2.00;99.90;;;;;;5020044;28;20026;-66
2024/01/15 07:56:28;;;;;;;7.40;1.88;;;2.00;99.90;;;;;;5013033;28;20716;-68
2024/01/15 07:58:54;;;;;;;7.65;1.60;;;1.90;99.90;;;;;;5020603;28;20513;-66
2024/01/15 08:01:19;;;;;;;9.32;2.38;;;2.00;99.90;;;;;;5012954;28;20040;-66
2024/01/15 08:03:45;;;;;;;7.10;2.30;;;2.00;99.90;;;;;;5017790;28;20468;-66
2024/01/15 08:06:10;;;;;;;5.57;1.90;;;2.00;99.90;;;;;;5018969;28;20112;-66
2024/01/15 08:08:37;;;;;;;12.20;2.50;;;2.00;99.90;;;;;;5020372;28;20025;-66
2024/01/15 08:11:02;;;;;;;9.43;2.47;;;2.00;99.90;;;;;;5017543;28;20029;-66
2024/01/15 08:13:28;;;;;;;15.02;2.92;;;2.00;99.90;;;;;;5021758;28;20025;-66
2024/01/15 08:15:53;;;;;;;10.15;2.10;;;2.10;99.90;;;;;;5017729;28;20037;-66
2024/01/15 08:18:21;;;;;;;9.50;2.60;;;2.10;99.90;;;;;;5012307;28;20028;-66
2024/01/15 08:20:47;;;;;;;14.38;2.60;;;2.20;99.90;;;;;;5021392;28;20540;-65
2024/01/15 08:23:12;;;;;;;8.13;1.80;;;2.30;99.90;;;;;;5015621;28;20033;-66
2024/01/15 08:25:38;;;;;;;11.38;2.42;;;2.30;99.90;;;;;;5014556;28;20414;-66
2024/01/15 08:28:03;;;;;;;6.50;2.00;;;2.40;99.90;;;;;;5016795;28;20508;-66
2024/01/15 08:30:29;;;;;;;11.02;2.42;;;2.40;99.90;;;;;;5016179;28;20394;-66
2024/01/15 08:32:55;;;;;;;13.70;2.55;;;2.50;99.90;;;;;;5020873;28;20451;-66
2024/01/15 08:35:22;;;;;;;8.07;2.28;;;2.50;99.90;;;;;;5014364;28;20485;-65
2024/01/15 08:37:52;;;;;;;22.67;2.58;;;2.50;99.90;;;;;;5015393;28;20010;-66
2024/01/15 08:40:17;;;;;;;13.43;2.30;;;2.50;99.90;;;;;;5014311;28;20032;-66
2024/01/15 08:42:43;;;;;;;15.45;2.25;;;2.50;99.90;;;;;;5013244;28;20033;-66
2024/01/15 08:45:09;;;;;;;12.73;2.15;;;2.50;99.90;;;;;;5014813;28;20021;-66
2024/01/15 08:47:35;;;;;;;12.82;1.92;;;2.50;99.90;;;;;;5014504;28;20042;-66
2024/01/15 08:50:01;;;;;;;15.18;2.70;;;2.60;99.90;;;;;;5011692;28;20115;-66
2024/01/15 08:52:27;;;;;;;6.97;1.85;;;2.60;99.90;;;;;;5018109;28;20021;-66
2024/01/15 08:54:52;;;;;;;8.55;2.45;;;2.60;99.90;;;;;;5015232;28;20030;-66
2024/01/15 08:57:18;;;;;;;8.98;1.75;;;2.60;99.90;;;;;;5012846;28;20654;-66
2024/01/15 08:59:43;;;;;;;13.90;2.28;;;2.70;99.90;;;;;;5012865;28;20128;-66
2024/01/15 09:02:09;;;;;;;10.77;1.98;;;2.80;99.90;;;;;;5013769;28;20034;-66
2024/01/15 09:04:34;;;;;;;7.47;2.17;;;2.70;99.90;;;;;;5015712;28;20040;-65
2024/01/15 09:07:00;;;;;;;5.95;2.28;;;2.80;99.90;;;;;;5014008;28;20030;-66
2024/01/15 09:09:25;;;;;;;5.40;1.75;;;2.80;99.90;;;;;;5013575;28;20033;-66
2024/01/15 09:11:51;;;;;;;9.18;2.00;;;2.80;99.90;;;;;;5015224;28;20032;-66
2024/01/15 09:14:17;;;;;;;8.85;2.22;;;2.80;99.90;;;;;;5014668;28;20029;-66
2024/01/15 09:16:43;;;;;;;9.57;2.22;;;2.80;99.90;;;;;;5014955;28;20037;-66
2024/01/15 09:19:08;;;;;;;5.95;1.45;;;2.80;99.90;;;;;;5015457;28;20393;-67
2024/01/15 09:21:34;;;;;;;8.13;2.38;;;2.80;99.90;;;;;;5016202;28;20061;-67
2024/01/15 09:23:59;;;;;;;10.95;2.00;;;2.80;99.90;;;;;;5014039;28;20041;-66
2024/01/15 09:26:25;;;;;;;8.57;2.00;;;2.70;99.90;;;;;;5010683;28;20072;-66
2024/01/15 09:28:51;;;;;;;7.22;1.67;;;2.70;99.90;;;;;;5010864;28;20079;-66
2024/01/15 09:31:17;;;;;;;6.78;2.03;;;2.70;99.90;;;;;;5014746;28;20074;-67
2024/01/15 09:33:43;;;;;;;9.23;1.65;;;2.70;99.90;;;;;;5013995;28;20049;-66
2024/01/15 09:36:09;;;;;;;6.88;2.40;;;2.70;99.90;;;;;;5010919;28;20029;-66
2024/01/15 09:38:35;;;;;;;10.07;2.00;;;2.80;99.90;;;;;;5021101;28;20034;-66
2024/01/15 09:41:00;;;;;;;4.38;1.73;;;2.80;99.90;;;;;;5014765;28;20083;-66
2024/01/15 09:43:26;;;;;;;8.52;2.10;;;2.70;99.90;;;;;;5014167;28;20021;-66
2024/01/15 09:45:53;;;;;;;7.70;1.80;;;2.70;99.90;;;;;;5014174;28;20477;-66
2024/01/15 09:48:19;;;;;;;6.78;1.90;;;2.70;99.90;;;;;;5017748;28;20029;-66
2024/01/15 09:50:45;;;;;;;8.00;2.08;;;2.70;99.90;;;;;;5011933;28;20081;-66
2024/01/15 09:53:11;;;;;;;10.60;1.92;;;2.80;99.90;;;;;;5015964;28;20331;-65
2024/01/15 09:55:40;;;;;;;4.70;1.80;;;2.80;99.90;;;;;;5018044;28;20029;-68
2024/01/15 09:58:06;;;;;;;4.57;1.80;;;2.80;99.90;;;;;;5010036;28;20045;-66
2024/01/15 10:00:33;;;;;;;6.70;1.50;;;2.80;99.90;;;;;;5014804;28;20523;-66
2024/01/15 10:03:02;;;;;;;5.57;1.40;;;2.90;99.90;;;;;;5006594;28;20045;-66
2024/01/15 10:05:27;;;;;;;10.13;2.20;;;3.00;99.90;;;;;;5010506;28;20393;-67
2024/01/15 10:07:56;;;;;;;9.40;2.22;;;3.00;99.90;;;;;;5013209;28;20026;-66
2024/01/15 10:10:22;;;;;;;6.82;1.77;;;3.00;99.90;;;;;;5011629;28;20120;-66
2024/01/15 10:12:48;;;;;;;8.73;2.15;;;3.00;99.90;;;;;;5015252;28;20096;-66
2024/01/15 10:15:14;;;;;;;6.60;1.65;;;3.10;99.90;;;;;;5013801;28;20021;-66
2024/01/15 10:17:40;;;;;;;6.57;1.55;;;3.10;99.80;;;;;;5011350;28;20033;-66
2024/01/15 10:20:10;;;;;;;5.65;1.88;;;3.20;99.90;;;;;;5012148;28;20033;-66
2024/01/15 10:22:38;;;;;;;7.80;1.50;;;3.20;99.60;;;;;;5007903;28;20037;-68
2024/01/15 10:25:05;;;;;;;6.90;1.55;;;3.50;99.00;;;;;;5013699;28;20405;-66
2024/01/15 10:27:30;;;;;;;6.57;1.60;;;3.50;98.80;;;;;;5013695;28;20064;-67
2024/01/15 10:29:59;;;;;;;9.90;2.05;;;3.60;98.70;;;;;;5017595;28;20057;-66
2024/01/15 10:32:25;;;;;;;5.93;1.60;;;3.60;98.60;;;;;;5014688;28;20051;-66
2024/01/15 10:34:52;;;;;;;6.00;1.45;;;3.60;98.80;;;;;;5009666;28;20026;-65
2024/01/15 10:37:18;;;;;;;5.80;1.38;;;3.60;98.00;;;;;;5016889;28;20080;-66
2024/01/15 10:39:44;;;;;;;8.57;1.70;;;3.60;98.50;;;;;;5007574;28;20038;-67
2024/01/15 10:42:09;;;;;;;5.85;1.92;;;3.60;98.30;;;;;;5009289;28;20021;-67
2024/01/15 10:44:35;;;;;;;9.85;1.70;;;3.60;97.80;;;;;;5012075;28;20033;-66
2024/01/15 10:47:01;;;;;;;5.75;1.77;;;3.60;97.80;;;;;;5010963;28;20025;-66
2024/01/15 10:49:28;;;;;;;6.03;1.40;;;3.50;98.20;;;;;;5010140;28;20418;-66
2024/01/15 10:51:54;;;;;;;4.10;1.35;;;3.50;98.10;;;;;;5015653;28;20581;-66
2024/01/15 10:54:20;;;;;;;3.17;1.38;;;3.40;98.10;;;;;;5011669;28;20539;-66
2024/01/15 10:56:47;;;;;;;8.98;1.75;;;3.40;97.60;;;;;;5012299;28;20022;-66
2024/01/15 10:59:13;;;;;;;8.90;2.10;;;3.40;98.10;;;;;;5013531;28;20736;-66
2024/01/15 11:01:39;;;;;;;10.55;2.28;;;3.40;98.10;;;;;;5007834;28;20033;-66
2024/01/15 11:04:05;;;;;;;6.65;2.03;;;3.50;98.10;;;;;;5013649;28;20037;-66
2024/01/15 11:06:44;;;;;;;7.00;1.40;;;3.50;97.60;;;;;;5016233;28;20563;-65
2024/01/15 11:09:09;;;;;;;7.70;1.40;;;3.50;97.50;;;;;;5009447;28;20581;-66
2024/01/15 11:11:46;;;;;;;7.00;1.90;;;3.40;97.70;;;;;;5014739;28;20116;-66
2024/01/15 11:14:38;;;;;;;4.07;1.63;;;3.40;97.40;;;;;;5011862;28;20036;-66
2024/01/15 11:17:05;;;;;;;5.13;1.73;;;3.40;97.40;;;;;;5015388;28;20095;-66
2024/01/15 11:19:44;;;;;;;8.48;1.45;;;3.40;97.30;;;;;;5008119;28;20397;-66
2024/01/15 11:22:29;;;;;;;7.35;1.90;;;3.40;97.10;;;;;;5008390;28;20041;-66
2024/01/15 11:24:55;;;;;;;4.70;1.20;;;3.50;96.40;;;;;;5011322;28;20033;-66
2024/01/15 11:27:43;;;;;;;7.75;1.63;;;3.50;96.40;;;;;;5018450;28;20034;-66
2024/01/15 11:30:13;;;;;;;5.95;1.80;;;3.50;96.00;;;;;;5012681;28;20092;-66
2024/01/15 11:32:42;;;;;;;4.13;1.50;;;3.60;96.40;;;;;;5012424;28;20036;-66
2024/01/15 11:35:11;;;;;;;3.70;1.63;;;3.70;96.50;;;;;;5011272;28;20029;-66
2024/01/15 11:37:51;;;;;;;3.40;1.52;;;3.80;95.50;;;;;;5014678;28;20037;-65
2024/01/15 11:40:37;;;;;;;9.02;1.40;;;3.90;95.30;;;;;;5013130;28;20068;-66
2024/01/15 11:43:04;;;;;;;5.75;1.35;;;3.90;94.90;;;;;;5019678;28;20033;-66
2024/01/15 11:45:30;;;;;;;8.85;1.40;;;3.90;94.70;;;;;;5014474;28;20026;-66
2024/01/15 11:48:01;;;;;;;3.65;1.02;;;3.90;94.60;;;;;;5014401;28;20030;-66
2024/01/15 11:50:30;;;;;;;2.90;1.02;;;3.80;95.00;;;;;;5018019;28;20025;-66
2024/01/15 11:53:03;;;;;;;2.28;1.20;;;3.80;94.70;;;;;;5013082;28;20089;-67
2024/01/15 11:55:39;;;;;;;2.47;0.88;;;3.70;94.80;;;;;;5014188;28;20033;-66
2024/01/15 11:58:11;;;;;;;4.38;0.95;;;3.70;95.00;;;;;;5018035;28;20026;-67
2024/01/15 12:00:52;;;;;;;5.07;0.80;;;3.60;94.60;;;;;;5016071;28;20021;-66
2024/01/15 12:03:20;;;;;;;3.13;1.08;;;3.60;95.10;;;;;;5011564;28;20762;-66
2024/01/15 12:05:45;;;;;;;2.78;1.10;;;3.60;95.30;;;;;;5018771;28;20029;-66
2024/01/15 12:08:11;;;;;;;3.67;1.08;;;3.50;95.60;;;;;;5013541;28;20040;-66
2024/01/15 12:10:41;;;;;;;4.35;1.00;;;3.50;95.80;;;;;;5019850;28;20017;-66
2024/01/15 12:13:14;;;;;;;9.05;1.20;;;3.50;96.00;;;;;;5015916;28;20208;-66
2024/01/15 12:15:43;;;;;;;3.05;1.25;;;3.40;95.90;;;;;;5017882;28;20033;-67
2024/01/15 12:18:10;;;;;;;8.43;1.83;;;3.30;96.60;;;;;;5014837;28;20034;-66
2024/01/15 12:20:36;;;;;;;3.42;1.35;;;3.30;97.30;;;;;;5017266;28;20068;-66
2024/01/15 12:23:09;;;;;;;4.93;1.15;;;3.30;98.10;;;;;;5013698;28;20030;-68
2024/01/15 12:25:36;;;;;;;3.60;1.15;;;3.30;98.70;;;;;;5015144;28;20053;-66
2024/01/15 12:28:02;;;;;;;3.42;1.15;;;3.30;99.80;;;;;;5013050;28;20115;-66
2024/01/15 12:30:28;;;;;;;3.20;1.40;;;3.30;99.90;;;;;;5013541;28;20026;-66
2024/01/15 12:32:55;;;;;;;3.30;1.13;;;3.20;99.90;;;;;;5021568;28;20033;-66
2024/01/15 12:35:20;;;;;;;3.17;1.35;;;3.20;99.90;;;;;;5019189;28;20104;-66
2024/01/15 12:37:47;;;;;;;3.28;1.05;;;3.00;99.90;;;;;;5016076;28;20101;-66
2024/01/15 12:40:14;;;;;;;2.75;1.10;;;3.10;99.90;;;;;;5013450;28;20029;-66
2024/01/15 12:42:40;;;;;;;1.85;1.20;;;3.00;99.90;;;;;;5017570;28;21048;-66
2024/01/15 12:45:06;;;;;;;2.45;1.15;;;3.00;99.90;;;;;;5017184;28;20033;-66
2024/01/15 12:47:32;;;;;;;1.40;1.00;;;2.90;99.90;;;;;;5015542;28;20026;-66
2024/01/15 12:49:59;;;;;;;2.85;1.20;;;2.90;99.90;;;;;;5013751;28;20191;-66